Time;durP1;ratioP1;P1;durP2;ratioP2;P2;SDS_P1;SDS_P2;PMS_P1;PMS_P2;Temp;Humidity;BMP_temperature;BMP_pressure;BME280_temperature;BME280_humidity;BME280_pressure;Samples;Min_cycle;Max_cycle;Signal;HPM_P1;HPM_P2
2023/12/30 00:02:04;;;;;;;0.30;0.30;;;;;;;12.83;66.18;100815.06;5110356;28;20122;-71
2023/12/30 00:04:30;;;;;;;0.30;0.30;;;;;;;13.32;64.35;100816.25;5092171;28;20040;-71
2023/12/30 00:06:55;;;;;;;0.20;0.20;;;;;;;12.42;66.79;100814.47;5091945;28;20043;-70
2023/12/30 00:09:21;;;;;;;0.30;0.30;;;;;;;12.03;67.99;100840.25;5109973;28;20040;-73
2023/12/30 00:11:46;;;;;;;0.38;0.38;;;;;;;12.45;67.13;100822.91;5109840;28;20103;-71
2023/12/30 00:14:12;;;;;;;0.20;0.20;;;;;;;12.67;65.69;100818.50;5109243;28;20035;-72
2023/12/30 00:16:39;;;;;;;0.20;0.20;;;;;;;12.86;65.06;100816.44;5109572;28;20066;-72
2023/12/30 00:19:05;;;;;;;0.20;0.20;;;;;;;12.55;65.23;100816.88;5109401;28;20046;-73
2023/12/30 00:21:30;;;;;;;0.30;0.30;;;;;;;12.46;66.27;100816.44;5110038;28;20047;-71
2023/12/30 00:23:56;;;;;;;0.45;0.45;;;;;;;12.43;66.25;100819.63;5106085;28;20452;-71
2023/12/30 00:26:22;;;;;;;0.28;0.28;;;;;;;12.23;66.25;100819.19;5089874;28;20113;-71
2023/12/30 00:28:49;;;;;;;0.40;0.40;;;;;;;12.48;66.06;100824.31;5089998;28;20044;-71
2023/12/30 00:31:21;;;;;;;0.20;0.20;;;;;;;12.43;66.07;100829.56;5109700;28;20043;-71
2023/12/30 00:33:46;;;;;;;0.30;0.30;;;;;;;12.30;66.82;100820.69;5110078;28;20039;-72
2023/12/30 00:36:12;;;;;;;0.30;0.30;;;;;;;12.25;67.82;100823.28;5109882;28;20114;-70
2023/12/30 00:38:37;;;;;;;0.40;0.40;;;;;;;12.46;66.16;100832.59;5113114;28;20055;-72
2023/12/30 00:41:02;;;;;;;0.25;0.25;;;;;;;12.58;65.93;100827.22;5113872;28;20136;-71
2023/12/30 00:43:28;;;;;;;0.40;0.40;;;;;;;12.79;63.87;100840.88;5095004;28;20078;-72
2023/12/30 00:45:53;;;;;;;0.25;0.25;;;;;;;12.73;64.75;100838.28;5113795;28;20193;-71
2023/12/30 00:48:18;;;;;;;0.20;0.20;;;;;;;12.32;66.13;100833.94;5113301;28;20636;-70
2023/12/30 00:50:44;;;;;;;0.40;0.40;;;;;;;12.71;64.41;100829.63;5114308;28;20032;-70
2023/12/30 00:53:09;;;;;;;0.25;0.25;;;;;;;12.74;64.59;100832.66;5113795;28;20123;-71
2023/12/30 00:55:35;;;;;;;0.20;0.20;;;;;;;12.76;64.59;100835.94;5113597;28;20044;-71
2023/12/30 00:58:00;;;;;;;0.30;0.30;;;;;;;12.80;64.33;100842.50;5113270;28;20031;-71
2023/12/30 01:00:25;;;;;;;0.45;0.45;;;;;;;12.41;65.26;100848.69;5113471;28;20127;-70
2023/12/30 01:02:51;;;;;;;0.30;0.30;;;;;;;12.34;66.82;100851.50;5114178;28;20548;-71
2023/12/30 01:05:16;;;;;;;0.28;0.28;;;;;;;12.45;65.61;100866.00;5113445;28;20552;-72
2023/12/30 01:07:41;;;;;;;0.40;0.40;;;;;;;12.74;64.32;100859.63;5113259;28;20046;-72
2023/12/30 01:10:07;;;;;;;0.30;0.30;;;;;;;13.04;63.54;100864.84;5094938;28;20031;-71
2023/12/30 01:12:32;;;;;;;0.30;0.30;;;;;;;12.34;65.28;100866.84;5094327;28;20047;-71
2023/12/30 01:14:58;;;;;;;0.28;0.28;;;;;;;12.22;65.29;100864.19;5113509;28;20682;-71
2023/12/30 01:17:23;;;;;;;0.22;0.22;;;;;;;12.51;64.63;100865.06;5113841;28;20422;-71
2023/12/30 01:19:48;;;;;;;0.28;0.28;;;;;;;12.57;65.01;100855.22;5113205;28;20088;-72
2023/12/30 01:22:14;;;;;;;0.20;0.20;;;;;;;12.47;65.83;100860.38;5112912;28;20050;-71
2023/12/30 01:24:39;;;;;;;0.30;0.30;;;;;;;12.79;64.74;100858.91;5102100;28;20036;-71
2023/12/30 01:27:05;;;;;;;0.22;0.22;;;;;;;12.56;66.03;100862.47;5092829;28;20028;-70
2023/12/30 01:29:30;;;;;;;0.30;0.30;;;;;;;12.03;67.25;100857.25;5097501;28;20095;-71
2023/12/30 01:31:55;;;;;;;0.52;0.52;;;;;;;11.94;68.16;100865.91;5092543;28;20036;-70
2023/12/30 01:34:21;;;;;;;0.30;0.30;;;;;;;12.15;67.75;100870.72;5092852;28;20036;-70
2023/12/30 01:36:46;;;;;;;0.40;0.40;;;;;;;12.26;67.19;100872.59;5092752;28;20492;-70
2023/12/30 01:39:13;;;;;;;0.40;0.40;;;;;;;12.35;66.65;100871.19;5092249;28;20035;-70
2023/12/30 01:41:38;;;;;;;0.25;0.25;;;;;;;11.99;68.67;100880.31;5093296;28;20024;-72
2023/12/30 01:44:03;;;;;;;0.35;0.35;;;;;;;11.96;67.59;100878.09;5098614;28;20047;-70
2023/12/30 01:46:29;;;;;;;0.28;0.28;;;;;;;11.90;69.10;100876.34;5112856;28;20122;-72
2023/12/30 01:48:55;;;;;;;0.30;0.30;;;;;;;12.03;67.86;100884.19;5112101;28;20044;-72
2023/12/30 01:51:20;;;;;;;0.25;0.25;;;;;;;12.08;68.20;100895.09;5112376;28;20047;-72
2023/12/30 01:53:46;;;;;;;0.30;0.30;;;;;;;12.22;67.14;100895.69;5113018;28;20067;-72
2023/12/30 01:56:12;;;;;;;0.20;0.20;;;;;;;11.62;68.94;100913.00;5112444;28;20116;-72
2023/12/30 01:58:38;;;;;;;0.35;0.35;;;;;;;11.77;68.62;100910.75;5112143;28;20188;-72
2023/12/30 02:01:06;;;;;;;0.30;0.30;;;;;;;11.90;68.67;100899.75;5112236;28;20562;-71
2023/12/30 02:03:32;;;;;;;0.30;0.30;;;;;;;11.89;67.82;100912.38;5112630;28;20063;-71
2023/12/30 02:05:57;;;;;;;0.20;0.20;;;;;;;12.01;67.41;100907.03;5094163;28;20023;-71
2023/12/30 02:08:23;;;;;;;0.10;0.10;;;;;;;11.84;68.49;100901.50;5112711;28;20034;-71
2023/12/30 02:10:48;;;;;;;0.20;0.20;;;;;;;12.20;66.87;100911.25;5094079;28;20042;-72
2023/12/30 02:13:13;;;;;;;0.40;0.40;;;;;;;11.62;68.72;100913.81;5093352;28;20110;-70
2023/12/30 02:15:39;;;;;;;0.30;0.30;;;;;;;11.69;69.04;100927.22;5112109;28;20035;-72
2023/12/30 02:18:04;;;;;;;0.20;0.20;;;;;;;11.79;68.46;100935.56;5112110;28;20031;-72
2023/12/30 02:20:31;;;;;;;0.50;0.50;;;;;;;11.40;70.49;100935.03;5112495;28;20024;-70
2023/12/30 02:22:56;;;;;;;0.30;0.30;;;;;;;11.36;71.07;100923.09;5111794;28;20123;-71
2023/12/30 02:25:22;;;;;;;0.40;0.40;;;;;;;11.89;68.78;100931.22;5101623;28;20118;-72
2023/12/30 02:27:47;;;;;;;0.30;0.30;;;;;;;11.52;70.46;100923.53;5112021;28;20395;-73
2023/12/30 02:30:14;;;;;;;0.20;0.20;;;;;;;11.89;68.70;100935.81;5100715;28;20095;-72
2023/12/30 02:32:39;;;;;;;0.30;0.30;;;;;;;11.49;69.45;100938.25;5092020;28;20027;-71
2023/12/30 02:35:05;;;;;;;0.20;0.20;;;;;;;11.79;69.04;100932.88;5091541;28;20081;-71
2023/12/30 02:37:30;;;;;;;0.25;0.25;;;;;;;11.68;68.96;100941.72;5091320;28;20085;-71
2023/12/30 02:39:56;;;;;;;0.40;0.40;;;;;;;11.72;68.74;100937.50;5094117;28;20492;-71
2023/12/30 02:42:21;;;;;;;0.30;0.30;;;;;;;11.66;69.44;100943.81;5111568;28;20445;-71
2023/12/30 02:44:46;;;;;;;0.30;0.30;;;;;;;11.24;70.42;100951.81;5111919;28;20041;-72
2023/12/30 02:47:12;;;;;;;0.30;0.30;;;;;;;11.50;69.69;100950.63;5111233;28;20060;-71
2023/12/30 02:49:44;;;;;;;0.30;0.30;;;;;;;11.36;70.11;100943.81;5111606;28;20031;-72
2023/12/30 02:52:09;;;;;;;0.30;0.30;;;;;;;11.17;71.33;100940.31;5092284;28;20126;-71
2023/12/30 02:54:35;;;;;;;0.30;0.30;;;;;;;11.11;71.17;100929.66;5111505;28;20570;-71
2023/12/30 02:57:02;;;;;;;0.20;0.20;;;;;;;11.39;70.82;100932.59;5111552;28;20466;-71
2023/12/30 02:59:28;;;;;;;0.25;0.25;;;;;;;11.58;69.37;100949.53;5092973;28;20036;-71
2023/12/30 03:01:53;;;;;;;0.20;0.20;;;;;;;11.19;70.87;100956.22;5092277;28;20028;-71
2023/12/30 03:04:19;;;;;;;0.20;0.20;;;;;;;11.28;70.43;100958.38;5111104;28;20035;-71
2023/12/30 03:06:44;;;;;;;0.20;0.20;;;;;;;11.17;70.89;100953.78;5111194;28;20123;-71
2023/12/30 03:09:10;;;;;;;0.38;0.38;;;;;;;11.17;71.06;100952.94;5092353;28;20143;-71
2023/12/30 03:11:35;;;;;;;0.40;0.40;;;;;;;10.99;71.02;100958.34;5092768;28;20063;-71
2023/12/30 03:14:00;;;;;;;0.45;0.45;;;;;;;11.15;70.96;100957.72;5111177;28;20122;-71
2023/12/30 03:16:26;;;;;;;0.32;0.32;;;;;;;11.29;69.52;100967.28;5111142;28;20475;-72
2023/12/30 03:18:51;;;;;;;0.30;0.30;;;;;;;11.21;70.24;100957.66;5110975;28;20035;-71
2023/12/30 03:21:17;;;;;;;0.20;0.20;;;;;;;11.26;70.59;100957.00;5110975;28;20043;-70
2023/12/30 03:23:42;;;;;;;0.20;0.20;;;;;;;11.06;70.86;100965.31;5108482;28;20040;-71
2023/12/30 03:26:09;;;;;;;0.40;0.40;;;;;;;11.18;70.59;100957.28;5090556;28;20036;-71
2023/12/30 03:28:35;;;;;;;0.30;0.30;;;;;;;10.82;71.45;100962.69;5090523;28;20052;-72
2023/12/30 03:31:00;;;;;;;0.25;0.25;;;;;;;10.90;71.77;100968.59;5108641;28;20092;-71
2023/12/30 03:33:26;;;;;;;0.20;0.20;;;;;;;11.34;69.09;100975.50;5110781;28;20413;-71
2023/12/30 03:35:52;;;;;;;0.20;0.20;;;;;;;11.03;69.99;100964.91;5111208;28;20568;-71
2023/12/30 03:38:18;;;;;;;0.25;0.25;;;;;;;11.64;67.48;100959.34;5110689;28;20123;-71
2023/12/30 03:40:43;;;;;;;0.20;0.20;;;;;;;11.60;67.11;100963.53;5092251;28;20039;-72
2023/12/30 03:43:09;;;;;;;0.28;0.28;;;;;;;11.45;67.84;100972.03;5110598;28;20036;-71
2023/12/30 03:45:34;;;;;;;0.30;0.30;;;;;;;11.29;69.40;100978.88;5092265;28;20054;-71
2023/12/30 03:48:00;;;;;;;0.20;0.20;;;;;;;11.03;69.72;100970.28;5110555;28;20062;-72
2023/12/30 03:50:25;;;;;;;0.30;0.30;;;;;;;11.07;69.45;100968.78;5111081;28;20031;-71
2023/12/30 03:52:51;;;;;;;0.30;0.30;;;;;;;10.94;70.45;100977.03;5110330;28;20039;-71
2023/12/30 03:55:17;;;;;;;0.22;0.22;;;;;;;11.49;67.88;100984.81;5110607;28;20036;-72
2023/12/30 03:57:42;;;;;;;0.20;0.20;;;;;;;10.88;70.06;100992.19;5110556;28;20059;-71
2023/12/30 04:00:08;;;;;;;0.20;0.20;;;;;;;11.03;69.85;100989.94;5109931;28;20034;-71
2023/12/30 04:02:33;;;;;;;0.20;0.20;;;;;;;11.09;70.32;100990.91;5110916;28;20393;-70
2023/12/30 04:04:58;;;;;;;0.30;0.30;;;;;;;11.14;69.20;100986.50;5110555;28;20028;-71
2023/12/30 04:07:24;;;;;;;0.30;0.30;;;;;;;11.02;69.92;100995.53;5110369;28;20051;-71
2023/12/30 04:09:49;;;;;;;0.20;0.20;;;;;;;11.24;69.50;100984.09;5110363;28;20047;-71
2023/12/30 04:12:14;;;;;;;0.20;0.20;;;;;;;11.31;69.27;100984.00;5112721;28;20106;-70
2023/12/30 04:14:40;;;;;;;0.20;0.20;;;;;;;11.04;69.30;100978.16;5115186;28;20036;-71
2023/12/30 04:17:05;;;;;;;0.20;0.20;;;;;;;11.26;68.95;100983.88;5114414;28;20070;-71
2023/12/30 04:19:31;;;;;;;0.20;0.20;;;;;;;11.26;68.96;100983.88;5095977;28;20043;-70
2023/12/30 04:21:56;;;;;;;0.30;0.30;;;;;;;11.03;69.05;100989.94;5114497;28;20502;-71
2023/12/30 04:24:22;;;;;;;0.28;0.28;;;;;;;11.36;68.73;100993.03;5105999;28;20043;-72
2023/12/30 04:26:49;;;;;;;0.30;0.30;;;;;;;11.44;68.71;100992.75;5094453;28;20036;-71
2023/12/30 04:29:15;;;;;;;0.40;0.40;;;;;;;11.44;67.93;100991.91;5097098;28;20780;-70
2023/12/30 04:31:40;;;;;;;0.30;0.30;;;;;;;11.23;68.38;100992.38;5114234;28;20051;-71
2023/12/30 04:34:05;;;;;;;0.30;0.30;;;;;;;11.23;68.45;100998.59;5114011;28;20568;-71
2023/12/30 04:36:31;;;;;;;0.30;0.30;;;;;;;11.10;69.64;101006.84;5114339;28;20477;-72
2023/12/30 04:38:56;;;;;;;0.22;0.22;;;;;;;11.16;69.96;100995.16;5114837;28;20081;-72
2023/12/30 04:41:21;;;;;;;0.20;0.20;;;;;;;11.30;68.31;100993.94;5114197;28;20613;-71
2023/12/30 04:43:47;;;;;;;0.30;0.30;;;;;;;10.85;70.23;101016.00;5114120;28;20123;-72
2023/12/30 04:46:13;;;;;;;0.20;0.20;;;;;;;10.95;70.42;101014.44;5114146;28;20035;-71
2023/12/30 04:48:38;;;;;;;0.30;0.30;;;;;;;11.27;68.95;101013.25;5113973;28;20040;-70
2023/12/30 04:51:03;;;;;;;0.20;0.20;;;;;;;11.29;68.66;101008.47;5095418;28;20048;-71
2023/12/30 04:53:29;;;;;;;0.40;0.40;;;;;;;11.74;66.54;101014.31;5095516;28;20548;-71
2023/12/30 04:55:54;;;;;;;0.30;0.30;;;;;;;10.95;69.65;101005.53;5113846;28;20797;-70
2023/12/30 04:58:20;;;;;;;0.30;0.30;;;;;;;10.94;69.48;101022.72;5113615;28;20456;-70
2023/12/30 05:00:46;;;;;;;0.20;0.20;;;;;;;11.05;69.15;101016.59;5113348;28;20097;-72
2023/12/30 05:03:11;;;;;;;0.22;0.22;;;;;;;11.31;68.73;100998.28;5111378;28;20030;-70
2023/12/30 05:05:37;;;;;;;0.30;0.30;;;;;;;10.95;69.62;101001.00;5113653;28;20027;-70
2023/12/30 05:08:03;;;;;;;0.35;0.35;;;;;;;11.44;68.22;101010.75;5113062;28;20556;-70
2023/12/30 05:10:29;;;;;;;0.38;0.38;;;;;;;11.00;69.76;101014.59;5113094;28;20227;-70
2023/12/30 05:12:54;;;;;;;0.20;0.20;;;;;;;11.08;69.61;101019.69;5113091;28;20583;-70
2023/12/30 05:15:20;;;;;;;0.25;0.25;;;;;;;11.01;69.03;101021.59;5112980;28;20092;-70
2023/12/30 05:17:45;;;;;;;0.22;0.22;;;;;;;10.76;70.37;101022.69;5113115;28;20050;-70
2023/12/30 05:20:12;;;;;;;0.30;0.30;;;;;;;10.88;70.21;101029.00;5113165;28;20046;-71
2023/12/30 05:22:39;;;;;;;0.40;0.40;;;;;;;11.17;69.04;101021.03;5112860;28;20495;-70
2023/12/30 05:25:05;;;;;;;0.30;0.30;;;;;;;11.17;68.64;101017.50;5112802;28;20043;-70
2023/12/30 05:27:30;;;;;;;0.25;0.25;;;;;;;11.18;69.06;101038.00;5113389;28;20039;-71
2023/12/30 05:29:55;;;;;;;0.35;0.35;;;;;;;10.84;70.28;101036.69;5104645;28;20044;-70
2023/12/30 05:32:20;;;;;;;0.40;0.40;;;;;;;11.08;69.14;101037.69;5092853;28;20059;-72
2023/12/30 05:34:46;;;;;;;0.30;0.30;;;;;;;10.88;70.13;101042.44;5092705;28;20042;-70
2023/12/30 05:37:11;;;;;;;0.28;0.28;;;;;;;11.03;69.86;101030.28;5090682;28;20119;-71
2023/12/30 05:39:36;;;;;;;0.20;0.20;;;;;;;11.04;69.27;101042.69;5092544;28;20161;-71
2023/12/30 05:42:03;;;;;;;0.20;0.20;;;;;;;10.91;69.98;101044.69;5092586;28;20491;-71
2023/12/30 05:44:28;;;;;;;0.20;0.20;;;;;;;10.72;70.37;101051.06;5093085;28;20028;-71
2023/12/30 05:46:53;;;;;;;0.30;0.30;;;;;;;11.46;68.49;101047.16;5091222;28;20069;-71
2023/12/30 05:49:19;;;;;;;0.30;0.30;;;;;;;10.87;68.90;101051.56;5092256;28;20055;-71
2023/12/30 05:51:44;;;;;;;0.40;0.40;;;;;;;11.19;68.91;101059.28;5101575;28;20066;-71
2023/12/30 05:54:12;;;;;;;0.20;0.20;;;;;;;11.24;67.75;101047.84;5112589;28;20466;-71
2023/12/30 05:56:38;;;;;;;0.30;0.30;;;;;;;11.15;68.38;101055.38;5095476;28;20073;-70
2023/12/30 05:59:03;;;;;;;0.40;0.40;;;;;;;10.94;69.27;101061.19;5112348;28;20487;-70
2023/12/30 06:01:29;;;;;;;0.30;0.30;;;;;;;11.12;69.29;101061.22;5094099;28;20043;-72
2023/12/30 06:03:54;;;;;;;0.20;0.20;;;;;;;10.75;69.89;101062.19;5112479;28;20135;-70
2023/12/30 06:06:20;;;;;;;0.40;0.40;;;;;;;10.99;68.93;101064.03;5112409;28;20042;-71
2023/12/30 06:08:46;;;;;;;0.40;0.40;;;;;;;11.04;69.52;101071.44;5112486;28;20802;-69
2023/12/30 06:11:12;;;;;;;0.20;0.20;;;;;;;11.15;68.82;101068.00;5083909;28;20035;-70
2023/12/30 06:13:40;;;;;;;0.40;0.40;;;;;;;11.10;68.90;101078.63;5073724;28;20119;-70
2023/12/30 06:16:08;;;;;;;0.30;0.30;;;;;;;10.98;69.25;101077.72;5101401;28;20043;-70
2023/12/30 06:18:33;;;;;;;0.22;0.22;;;;;;;10.80;70.09;101085.72;5111987;28;20039;-71
2023/12/30 06:20:59;;;;;;;0.30;0.30;;;;;;;11.10;69.83;101095.59;5111936;28;20024;-71
2023/12/30 06:23:24;;;;;;;0.30;0.30;;;;;;;10.69;71.27;101089.97;5112270;28;20040;-70
2023/12/30 06:25:50;;;;;;;0.30;0.30;;;;;;;11.25;69.65;101087.97;5111693;28;20073;-70
2023/12/30 06:28:15;;;;;;;0.32;0.32;;;;;;;10.84;69.83;101090.44;5111925;28;20061;-71
2023/12/30 06:30:40;;;;;;;0.32;0.32;;;;;;;11.00;68.98;101094.44;5111781;28;20040;-71
2023/12/30 06:33:06;;;;;;;0.32;0.32;;;;;;;11.17;68.61;101103.56;5111789;28;20118;-71
2023/12/30 06:35:35;;;;;;;0.30;0.30;;;;;;;10.97;70.54;101095.69;5112268;28;20039;-69
2023/12/30 06:38:01;;;;;;;0.30;0.30;;;;;;;10.74;71.60;101094.66;5111010;28;20123;-71
2023/12/30 06:40:27;;;;;;;0.28;0.28;;;;;;;11.03;69.52;101099.34;5110544;28;20035;-70
2023/12/30 06:42:53;;;;;;;0.30;0.30;;;;;;;10.89;70.41;101100.56;5110892;28;20491;-71
2023/12/30 06:45:18;;;;;;;0.28;0.28;;;;;;;10.98;69.90;101091.16;5110927;28;20032;-70
2023/12/30 06:47:43;;;;;;;0.30;0.30;;;;;;;11.12;69.05;101098.03;5103670;28;20503;-71
2023/12/30 06:50:12;;;;;;;0.30;0.30;;;;;;;11.25;68.42;101097.91;5088769;28;20032;-73
2023/12/30 06:52:37;;;;;;;0.20;0.20;;;;;;;10.69;70.71;101091.84;5088201;28;20054;-71
2023/12/30 06:55:03;;;;;;;0.32;0.32;;;;;;;10.88;70.74;101104.28;5089973;28;20035;-70
2023/12/30 06:57:28;;;;;;;0.28;0.28;;;;;;;11.29;69.05;101099.94;5090024;28;20051;-70
2023/12/30 06:59:55;;;;;;;0.28;0.28;;;;;;;10.49;71.52;101100.06;5091095;28;20047;-70
2023/12/30 07:02:21;;;;;;;0.20;0.20;;;;;;;10.54;72.11;101106.41;5110287;28;20487;-70
2023/12/30 07:04:46;;;;;;;0.22;0.22;;;;;;;10.67;70.83;101104.66;5110504;28;20039;-71
2023/12/30 07:07:12;;;;;;;0.20;0.20;;;;;;;10.76;70.57;101109.53;5106974;28;20043;-72
2023/12/30 07:09:39;;;;;;;0.20;0.20;;;;;;;10.95;70.41;101113.91;5097220;28;20138;-71
2023/12/30 07:12:04;;;;;;;0.30;0.30;;;;;;;10.74;71.57;101117.00;5110241;28;20180;-69
2023/12/30 07:14:34;;;;;;;0.22;0.22;;;;;;;10.98;70.49;101121.56;5110676;28;20640;-72
2023/12/30 07:16:59;;;;;;;0.20;0.20;;;;;;;10.76;71.26;101116.78;5092537;28;20043;-72
2023/12/30 07:19:25;;;;;;;0.40;0.40;;;;;;;10.63;70.99;101128.47;5089497;28;20423;-71
2023/12/30 07:21:50;;;;;;;0.30;0.30;;;;;;;11.20;69.70;101122.78;5090717;28;20422;-70
2023/12/30 07:24:16;;;;;;;0.30;0.30;;;;;;;10.99;70.31;101131.25;5097355;28;20108;-71
2023/12/30 07:26:41;;;;;;;0.20;0.20;;;;;;;10.64;71.41;101130.09;5103120;28;20024;-71
2023/12/30 07:29:07;;;;;;;0.22;0.22;;;;;;;10.81;71.19;101136.56;5109846;28;20035;-70
2023/12/30 07:31:32;;;;;;;0.32;0.32;;;;;;;10.95;69.85;101138.13;5110453;28;20069;-70
2023/12/30 07:33:57;;;;;;;0.40;0.40;;;;;;;10.28;72.63;101138.81;5110607;28;20503;-71
2023/12/30 07:36:24;;;;;;;0.30;0.30;;;;;;;10.66;71.73;101152.22;5110523;28;20040;-70
2023/12/30 07:38:49;;;;;;;0.30;0.30;;;;;;;10.39;72.79;101156.94;5091813;28;20067;-70
2023/12/30 07:41:15;;;;;;;0.30;0.30;;;;;;;10.97;70.34;101154.03;5110026;28;20067;-70
2023/12/30 07:43:40;;;;;;;0.35;0.35;;;;;;;11.00;70.40;101167.88;5110690;28;20479;-70
2023/12/30 07:46:06;;;;;;;0.30;0.30;;;;;;;10.69;70.40;101164.41;5109982;28;20040;-69
2023/12/30 07:48:31;;;;;;;0.60;0.60;;;;;;;10.93;69.72;101168.97;5096230;28;20047;-71
2023/12/30 07:50:57;;;;;;;0.30;0.30;;;;;;;11.02;69.39;101170.34;5090053;28;20438;-71
2023/12/30 07:53:22;;;;;;;0.35;0.35;;;;;;;10.85;69.72;101170.03;5090966;28;20052;-71
2023/12/30 07:55:48;;;;;;;0.30;0.30;;;;;;;11.18;68.56;101175.97;5090352;28;20036;-70
2023/12/30 07:58:13;;;;;;;0.30;0.30;;;;;;;10.78;70.23;101185.41;5092350;28;20536;-69
2023/12/30 08:00:38;;;;;;;0.40;0.40;;;;;;;11.07;69.19;101187.44;5109888;28;20043;-69
2023/12/30 08:03:04;;;;;;;0.40;0.40;;;;;;;10.98;68.94;101188.78;5109399;28;20177;-70
2023/12/30 08:05:29;;;;;;;0.40;0.40;;;;;;;10.56;70.77;101203.75;5110192;28;20023;-71
2023/12/30 08:07:56;;;;;;;0.28;0.28;;;;;;;11.18;68.66;101199.38;5108263;28;20441;-72
2023/12/30 08:10:21;;;;;;;0.50;0.50;;;;;;;11.72;66.08;101209.41;5108381;28;20039;-69
2023/12/30 08:12:47;;;;;;;0.30;0.30;;;;;;;11.53;67.58;101200.47;5109458;28;20055;-70
2023/12/30 08:15:12;;;;;;;0.30;0.30;;;;;;;11.46;66.93;101210.47;5107808;28;20523;-70
2023/12/30 08:17:38;;;;;;;0.20;0.20;;;;;;;11.45;66.60;101215.06;5109212;28;20374;-70
2023/12/30 08:20:04;;;;;;;0.20;0.20;;;;;;;11.59;66.31;101217.59;5109151;28;20040;-70
2023/12/30 08:22:29;;;;;;;0.40;0.40;;;;;;;11.23;67.14;101224.56;5109789;28;20488;-70
2023/12/30 08:24:55;;;;;;;0.28;0.28;;;;;;;11.24;67.58;101228.88;5109644;28;20042;-70
2023/12/30 08:27:20;;;;;;;0.30;0.30;;;;;;;11.60;65.85;101238.06;5091254;28;20039;-71
2023/12/30 08:29:46;;;;;;;0.30;0.30;;;;;;;11.36;67.07;101231.72;5110456;28;20549;-69
2023/12/30 08:32:11;;;;;;;0.22;0.22;;;;;;;11.54;66.92;101234.41;5109434;28;20047;-69
2023/12/30 08:34:36;;;;;;;0.30;0.30;;;;;;;11.73;65.76;101238.00;5091356;28;20118;-72
2023/12/30 08:37:08;;;;;;;0.40;0.40;;;;;;;11.69;66.71;101240.31;5109387;28;20044;-70
2023/12/30 08:39:34;;;;;;;0.22;0.22;;;;;;;11.34;67.90;101249.94;5109819;28;20045;-71
2023/12/30 08:41:59;;;;;;;0.30;0.30;;;;;;;12.04;65.68;101240.56;5110075;28;20111;-72
2023/12/30 08:44:26;;;;;;;0.32;0.32;;;;;;;11.67;66.35;101242.41;5092223;28;20110;-71
2023/12/30 08:46:52;;;;;;;0.30;0.30;;;;;;;12.05;65.57;101244.88;5109871;28;20044;-70
2023/12/30 08:49:17;;;;;;;0.30;0.30;;;;;;;11.61;66.61;101245.97;5109466;28;20046;-72
2023/12/30 08:51:43;;;;;;;0.40;0.40;;;;;;;11.05;69.46;101247.88;5109594;28;20590;-70
2023/12/30 08:54:08;;;;;;;0.30;0.30;;;;;;;11.66;67.71;101251.50;5109686;28;20106;-70
2023/12/30 08:56:33;;;;;;;0.30;0.30;;;;;;;12.26;65.36;101258.72;5110237;28;20415;-71
2023/12/30 08:58:59;;;;;;;0.30;0.30;;;;;;;11.91;65.26;101252.28;5111153;28;20470;-70
2023/12/30 09:01:24;;;;;;;0.60;0.60;;;;;;;12.63;64.25;101254.09;5113610;28;20542;-72
2023/12/30 09:03:49;;;;;;;0.30;0.30;;;;;;;12.66;63.41;101253.63;5113462;28;20038;-72
2023/12/30 09:06:15;;;;;;;0.38;0.38;;;;;;;12.82;62.71;101250.28;5112521;28;20059;-71
2023/12/30 09:08:41;;;;;;;0.60;0.60;;;;;;;12.98;62.53;101254.22;5113732;28;20658;-70
2023/12/30 09:11:17;;;;;;;0.50;0.50;;;;;;;12.82;63.01;101255.69;5113462;28;20027;-71
2023/12/30 09:13:43;;;;;;;0.35;0.35;;;;;;;12.70;63.19;101262.09;5113137;28;20042;-70
2023/12/30 09:16:09;;;;;;;0.22;0.22;;;;;;;12.29;65.32;101252.88;5113548;28;20039;-71
2023/12/30 09:18:35;;;;;;;0.30;0.30;;;;;;;12.18;66.63;101252.81;5113313;28;20525;-70
2023/12/30 09:21:00;;;;;;;0.20;0.20;;;;;;;12.79;64.47;101247.25;5113074;28;20107;-70
2023/12/30 09:23:26;;;;;;;0.20;0.20;;;;;;;12.91;63.61;101246.22;5094825;28;20039;-70
2023/12/30 09:25:51;;;;;;;0.30;0.30;;;;;;;14.00;59.61;101245.59;5113471;28;20032;-70
2023/12/30 09:28:16;;;;;;;0.38;0.38;;;;;;;13.96;59.72;101255.25;5093956;28;20035;-71
2023/12/30 09:30:42;;;;;;;0.40;0.40;;;;;;;13.32;61.29;101258.06;5113039;28;20119;-72
2023/12/30 09:33:07;;;;;;;0.30;0.30;;;;;;;13.36;61.44;101257.38;5112908;28;20110;-71
2023/12/30 09:35:32;;;;;;;0.40;0.40;;;;;;;13.39;62.03;101258.78;5113552;28;20067;-70
2023/12/30 09:37:58;;;;;;;0.30;0.30;;;;;;;13.84;61.45;101263.34;5112623;28;20089;-71
2023/12/30 09:40:23;;;;;;;0.40;0.40;;;;;;;13.57;62.12;101259.50;5112757;28;20130;-71
2023/12/30 09:42:50;;;;;;;0.38;0.38;;;;;;;12.92;64.50;101268.63;5093836;28;20123;-70
2023/12/30 09:45:16;;;;;;;0.32;0.32;;;;;;;13.14;64.16;101281.41;5094752;28;20054;-70
2023/12/30 09:47:45;;;;;;;0.20;0.20;;;;;;;13.06;65.33;101268.22;5105884;28;20037;-71
2023/12/30 09:50:11;;;;;;;0.30;0.30;;;;;;;13.39;64.37;101273.09;5090718;28;20630;-70
2023/12/30 09:52:36;;;;;;;0.32;0.32;;;;;;;13.40;64.25;101271.22;5091893;28;20032;-71
2023/12/30 09:55:02;;;;;;;0.30;0.30;;;;;;;12.97;65.40;101274.16;5095380;28;20039;-70
2023/12/30 09:57:27;;;;;;;0.40;0.40;;;;;;;12.60;68.02;101284.19;5112538;28;20028;-72
2023/12/30 09:59:55;;;;;;;0.30;0.30;;;;;;;13.20;66.59;101277.78;5112652;28;20028;-71
2023/12/30 10:02:20;;;;;;;0.20;0.20;;;;;;;13.20;66.20;101268.84;5112404;28;20043;-70
2023/12/30 10:04:49;;;;;;;0.30;0.30;;;;;;;13.59;64.77;101264.66;5112699;28;20494;-71
2023/12/30 10:07:14;;;;;;;0.50;0.50;;;;;;;13.46;65.24;101278.41;5108494;28;20585;-71
2023/12/30 10:09:41;;;;;;;0.30;0.30;;;;;;;13.35;66.28;101273.78;5096950;28;20158;-71
2023/12/30 10:12:08;;;;;;;0.35;0.35;;;;;;;13.87;64.64;101278.28;5109159;28;20084;-71
2023/12/30 10:14:33;;;;;;;0.50;0.50;;;;;;;14.05;64.27;101278.16;5111000;28;20069;-70
2023/12/30 10:17:02;;;;;;;0.30;0.30;;;;;;;13.51;65.45;101273.09;5108883;28;20131;-71
2023/12/30 10:19:28;;;;;;;0.40;0.40;;;;;;;13.50;65.11;101272.31;5110624;28;20043;-71
2023/12/30 10:21:55;;;;;;;0.40;0.40;;;;;;;14.08;63.21;101280.38;5110576;28;20066;-72
2023/12/30 10:24:20;;;;;;;0.30;0.30;;;;;;;13.86;63.79;101273.91;5109766;28;20043;-71
2023/12/30 10:26:46;;;;;;;0.30;0.30;;;;;;;14.16;64.20;101276.47;5111347;28;20119;-72
2023/12/30 10:29:12;;;;;;;0.30;0.30;;;;;;;13.82;63.65;101272.75;5110844;28;20062;-72
2023/12/30 10:31:37;;;;;;;0.50;0.50;;;;;;;12.97;67.65;101271.47;5110833;28;20036;-72
2023/12/30 10:34:04;;;;;;;0.40;0.40;;;;;;;13.45;66.19;101272.16;5110884;28;20118;-71
2023/12/30 10:36:29;;;;;;;0.30;0.30;;;;;;;13.67;65.08;101284.03;5110759;28;20503;-72
2023/12/30 10:38:55;;;;;;;0.30;0.30;;;;;;;13.60;65.64;101283.31;5111338;28;20046;-70
2023/12/30 10:41:21;;;;;;;0.30;0.30;;;;;;;13.98;64.67;101288.25;5111719;28;20040;-70
2023/12/30 10:43:46;;;;;;;0.25;0.25;;;;;;;13.73;64.62;101282.28;5111886;28;20046;-70
2023/12/30 10:46:12;;;;;;;0.40;0.40;;;;;;;13.26;67.69;101283.28;5092803;28;20089;-72
2023/12/30 10:48:50;;;;;;;0.25;0.25;;;;;;;13.79;66.53;101281.34;5111057;28;20564;-71
2023/12/30 10:51:28;;;;;;;0.30;0.30;;;;;;;14.01;63.79;101277.78;5111388;28;20035;-71
2023/12/30 10:54:04;;;;;;;0.22;0.22;;;;;;;14.72;61.86;101277.38;5095078;28;20102;-72
2023/12/30 10:56:32;;;;;;;0.30;0.30;;;;;;;15.43;59.45;101278.69;5110681;28;20543;-70
2023/12/30 10:59:04;;;;;;;0.40;0.40;;;;;;;14.91;61.75;101286.97;5110372;28;20043;-70
2023/12/30 11:01:30;;;;;;;0.40;0.40;;;;;;;14.57;62.24;101273.56;5109866;28;20097;-70
2023/12/30 11:03:56;;;;;;;0.40;0.40;;;;;;;15.13;60.28;101278.97;5109613;28;20093;-70
2023/12/30 11:06:51;;;;;;;0.30;0.30;;;;;;;15.26;60.34;101277.81;5086948;28;20043;-70
2023/12/30 11:09:18;;;;;;;0.35;0.35;;;;;;;14.13;63.74;101285.91;5107882;28;20032;-71
2023/12/30 11:11:51;;;;;;;0.30;0.30;;;;;;;15.20;60.61;101279.63;5109162;28;20069;-70
2023/12/30 11:14:17;;;;;;;0.30;0.30;;;;;;;14.82;61.94;101277.59;5107886;28;20297;-70
2023/12/30 11:16:43;;;;;;;0.45;0.45;;;;;;;14.45;62.66;101283.59;5106528;28;20138;-70
2023/12/30 11:19:09;;;;;;;0.43;0.43;;;;;;;15.04;61.15;101272.31;5089438;28;20119;-70